CW8593 Gava ES current weather conditions

sailwx.info

Wind from 309

Air temperature 16.1° C
Dewpoint 9.3° C

Last reported at 2015-May-25 00:42 UTC.
Time now 2015-May-25 01:29 UTC

Location: N 41°18' E 001°60'.
View on Google Maps.

See reports from other nearby stations

  
Tides and Currents Weather Stations Pressure Air Temp Water Temp Dewpoint Dewpoint Depression Visibility Wind Speed Wind Dir Waves Ship Positions
date/time (UTC)wind fromknots sea level pressurealtimeterstation pressurevisibilityair tempwater tempwave heightnotes
2015-May-25 00:42 309 16.1
2015-May-25 00:22 308 0 gusting 2 16.1
2015-May-25 00:12 307 16.1
2015-May-25 00:02 309 0 gusting 6 16.7
2015-May-24 23:42 321 2 gusting 4 16.7
2015-May-24 23:32 325 1 gusting 5 16.7
2015-May-24 23:22 294 16.7
2015-May-24 23:12 291 3 gusting 6 16.7
2015-May-24 23:02 304 4 gusting 6 16.7
2015-May-24 22:52 306 1 gusting 5 16.7
2015-May-24 22:32 323 1 gusting 4 16.7
2015-May-24 22:02 212 1 gusting 2 16.1
2015-May-24 21:42 153 16.1
2015-May-24 21:32 153 16.1
2015-May-24 21:12 153 16.1
2015-May-24 21:02 153 0 gusting 1 16.1
2015-May-24 20:52 153 16.1
2015-May-24 20:42 153 16.7
2015-May-24 20:32 152 16.7
2015-May-24 20:22 153 16.7
2015-May-24 19:52 153 0 gusting 2 17.2
2015-May-24 19:42 144 0 gusting 2 17.2
2015-May-24 19:32 144 1 gusting 2 17.8
2015-May-24 19:22 142 18.3
2015-May-24 19:12 142 0 gusting 2 18.3
2015-May-24 19:02 141 0 gusting 4 18.3
2015-May-24 18:52 140 0 gusting 2 18.3
2015-May-24 12:53 132 4 gusting 8 21.1
2015-May-24 12:43 130 1 gusting 5 21.7
2015-May-24 12:33 078 1 gusting 7 21.1
2015-May-24 12:23 152 3 gusting 7 20.6
2015-May-24 12:13 161 1 gusting 8 20.6
2015-May-24 12:03 126 2 gusting 6 20.6
2015-May-24 11:43 150 4 gusting 10 20.6
2015-May-24 11:33 092 5 gusting 8 20.6
2015-May-24 11:23 110 5 gusting 10 21.1
2015-May-24 11:13 149 6 gusting 10 21.1
2015-May-24 11:03 142 5 gusting 10 21.1
2015-May-24 10:33 158 3 gusting 6 21.1
2015-May-24 10:13 127 4 gusting 8 21.1
2015-May-24 09:53 206 4 gusting 10 20.6
2015-May-24 09:43 180 1 gusting 7 20.6
2015-May-24 09:33 114 4 gusting 10 20.6
2015-May-24 09:13 152 3 gusting 10 21.1
2015-May-24 09:03 134 5 gusting 7 22.2
2015-May-24 08:53 067 2 gusting 7 22.2
2015-May-24 08:23 042 2 gusting 6 22.2
2015-May-24 08:13 044 2 gusting 6 21.7
2015-May-24 08:03 002 5 gusting 6 21.1
2015-May-24 07:43 288 2 gusting 8 20.6
2015-May-24 07:23 296 3 gusting 10 20.0
2015-May-24 07:03 326 4 gusting 10 19.4
2015-May-24 06:53 004 3 gusting 10 18.9
2015-May-24 06:43 339 5 gusting 10 18.9
2015-May-24 06:33 339 5 gusting 10 18.9
2015-May-24 06:13 343 2 gusting 7 18.3
2015-May-24 06:03 346 5 gusting 10 17.8
2015-May-24 05:43 334 1 gusting 5 17.8
2015-May-24 05:33 290 4 gusting 7 16.7
2015-May-24 05:23 302 1 gusting 2 16.1
2015-May-24 05:13 302 15.6
2015-May-24 04:43 300 15.6
2015-May-24 04:33 303 3 gusting 6 15.0
2015-May-24 04:23 213 14.4
2015-May-24 04:13 213 15.0
2015-May-24 04:03 213 14.4
2015-May-24 03:53 213 13.9
2015-May-24 03:43 213 14.4
2015-May-24 03:33 213 14.4
2015-May-24 03:13 213 14.4
2015-May-24 02:53 213 15.0
2015-May-24 02:33 213 15.0
2015-May-24 02:13 213 15.6
2015-May-24 02:03 213 15.6
2015-May-24 01:53 213 15.6
2015-May-24 01:33 213 15.6
2015-May-24 01:23 213 15.6
2015-May-24 01:13 213 16.1
2015-May-24 01:03 213 0 gusting 2 16.1
2015-May-24 00:43 213 16.7
2015-May-24 00:33 213 16.7
2015-May-24 00:23 213 0 gusting 1 16.7
2015-May-24 00:13 213 16.7
2015-May-24 00:03 213 17.2
2015-May-23 23:53 213 17.2
2015-May-23 23:43 213 17.2
2015-May-23 23:33 213 17.2
2015-May-23 23:23 213 17.8
2015-May-23 23:13 213 1 gusting 2 17.2
2015-May-23 22:53 213 17.2
2015-May-23 22:33 211 0 gusting 1 17.2
2015-May-23 22:03 213 17.2
2015-May-23 21:43 212 17.2
2015-May-23 21:33 212 17.2
2015-May-23 21:23 213 17.2
2015-May-23 21:03 211 0 gusting 2 17.8
2015-May-23 20:53 212 17.8
2015-May-23 20:43 211 17.8
2015-May-23 20:33 212 0 gusting 2 17.8
2015-May-23 20:23 211 17.8
2015-May-23 20:13 212 17.8
2015-May-23 20:03 211 0 gusting 2 17.8
2015-May-23 19:43 213 0 gusting 2 17.8
2015-May-23 19:33 213 1 gusting 4 17.8
2015-May-23 19:03 190 1 gusting 2 18.3
2015-May-23 18:33 136 2 gusting 5 18.3
2015-May-23 17:53 141 2 gusting 10 18.3
2015-May-23 17:43 154 5 gusting 10 18.9
2015-May-23 17:33 126 4 gusting 10 18.9
2015-May-23 17:23 180 4 gusting 10 18.9
2015-May-23 17:13 129 6 gusting 10 18.9
2015-May-23 17:03 092 5 gusting 12 18.9
2015-May-23 16:53 128 7 gusting 12 19.4
2015-May-23 16:43 135 6 gusting 10 19.4
2015-May-23 16:33 105 5 gusting 11 19.4
2015-May-23 16:13 113 5 gusting 10 19.4
2015-May-23 16:03 124 6 gusting 11 19.4
2015-May-23 15:53 139 6 gusting 13 20.0
2015-May-23 15:43 133 6 gusting 11 21.1
2015-May-23 15:23 167 7 gusting 17 21.7
2015-May-23 15:13 180 5 gusting 13 22.2
2015-May-23 15:03 184 8 gusting 13 22.2
2015-May-23 14:53 160 10 gusting 19 21.7
2015-May-23 14:43 140 6 gusting 17 22.2
2015-May-23 14:33 155 7 gusting 18 21.7
2015-May-23 14:13 181 7 gusting 17 21.1
2015-May-23 13:43 179 8 gusting 13 20.6
2015-May-23 13:33 229 5 gusting 11 20.6
2015-May-23 13:23 222 5 gusting 13 20.6
2015-May-23 13:13 168 5 gusting 11 20.6
2015-May-23 12:53 194 5 gusting 13 20.6
2015-May-23 12:43 203 4 gusting 11 20.6
2015-May-23 12:23 164 4 gusting 11 20.0
2015-May-23 12:03 210 4 gusting 10 20.0
2015-May-23 11:53 184 5 gusting 12 19.4
2015-May-23 11:43 192 6 gusting 13 19.4
2015-May-23 11:33 185 4 gusting 13 19.4
2015-May-23 11:23 183 6 gusting 14 19.4
2015-May-23 11:03 207 8 gusting 13 18.9
2015-May-23 10:53 163 6 gusting 12 19.4
2015-May-23 10:43 193 6 gusting 12 19.4
2015-May-23 10:33 210 2 gusting 10 19.4
2015-May-23 10:23 221 6 gusting 10 19.4
2015-May-23 10:03 174 4 gusting 7 20.0
2015-May-23 09:53 178 2 gusting 7 20.0
2015-May-23 09:43 197 2 gusting 7 20.0
2015-May-23 09:33 175 2 gusting 6 20.0
2015-May-23 09:23 167 1 gusting 6 19.4
2015-May-23 09:03 184 2 gusting 6 19.4
2015-May-23 08:53 182 4 gusting 6 19.4
2015-May-23 08:43 203 4 gusting 6 19.4
2015-May-23 08:33 164 2 gusting 6 19.4
2015-May-23 08:03 172 0 gusting 4 18.9
2015-May-23 07:53 204 1 gusting 6 18.3
2015-May-23 07:43 152 5 gusting 6 17.8
2015-May-23 07:33 132 2 gusting 8 18.3
2015-May-23 07:23 149 4 gusting 6 19.4
2015-May-23 07:13 166 18.9
2015-May-23 06:53 322 3 gusting 10 18.9
2015-May-23 06:43 018 2 gusting 6 18.3
2015-May-23 06:33 013 2 gusting 6 18.3
2015-May-23 06:23 350 4 gusting 7 17.8
2015-May-23 06:13 336 1 gusting 6 16.7
2015-May-23 05:53 298 1 gusting 4 15.6
2015-May-23 05:43 299 14.4
2015-May-23 05:33 299 13.9
2015-May-23 05:13 299 12.8
2015-May-23 05:03 299 12.8
2015-May-23 04:53 299 12.2
2015-May-23 04:43 299 0 gusting 2 12.2
2015-May-23 04:33 299 0 gusting 2 12.2
2015-May-23 04:03 300 0 gusting 4 13.3
2015-May-23 03:53 301 1 gusting 2 12.2
2015-May-23 03:33 300 12.8
2015-May-23 03:23 300 13.3
2015-May-23 03:13 301 13.9
2015-May-23 03:03 300 0 gusting 4 14.4
2015-May-23 02:53 301 4 gusting 5 14.4
2015-May-23 02:33 315 0 gusting 4 13.9
2015-May-23 02:23 309 0 gusting 5 13.9
2015-May-23 02:13 276 1 gusting 2 13.3
2015-May-23 02:03 276 0 gusting 2 13.9
2015-May-23 01:53 276 0 gusting 2 13.9
2015-May-23 01:13 276 13.9
2015-May-23 01:03 275 0 gusting 1 13.9